Time;durP1;ratioP1;P1;durP2;ratioP2;P2;SDS_P1;SDS_P2;PMS_P1;PMS_P2;Temp;Humidity;BMP_temperature;BMP_pressure;BME280_temperature;BME280_humidity;BME280_pressure;Samples;Min_cycle;Max_cycle;Signal;HPM_P1;HPM_P2
2022/02/02 00:01:24;;;;;;;7.85;4.88;;;5.40;99.90;;;;;;5116705;28;20019;-67
2022/02/02 00:03:53;;;;;;;13.30;5.45;;;5.40;99.90;;;;;;5115303;28;20387;-67
2022/02/02 00:06:29;;;;;;;8.25;4.80;;;5.40;99.90;;;;;;5117526;28;20076;-68
2022/02/02 00:08:58;;;;;;;9.32;5.30;;;5.50;99.90;;;;;;5116706;28;20081;-68
2022/02/02 00:14:21;;;;;;;7.90;4.88;;;5.50;99.90;;;;;;5116960;28;20034;-68
2022/02/02 00:16:56;;;;;;;9.45;5.43;;;5.50;99.90;;;;;;5116964;28;20035;-67
2022/02/02 00:22:05;;;;;;;6.80;4.43;;;5.40;99.90;;;;;;5122981;28;20156;-67
2022/02/02 00:24:49;;;;;;;;;;;5.50;99.90;;;;;;5119459;28;20019;-67
2022/02/02 00:27:18;;;;;;;8.30;5.43;;;5.50;99.90;;;;;;5116596;28;19903;-67
2022/02/02 00:29:49;;;;;;;11.38;6.18;;;5.50;99.90;;;;;;5116561;28;20019;-68
2022/02/02 00:34:44;;;;;;;18.27;10.30;;;5.60;99.90;;;;;;5117295;28;20024;-66
2022/02/02 00:37:11;;;;;;;15.88;9.02;;;5.60;99.90;;;;;;5117032;28;20020;-66
2022/02/02 00:39:36;;;;;;;20.40;9.68;;;5.50;99.90;;;;;;5115962;28;20103;-66
2022/02/02 00:42:03;;;;;;;12.53;6.33;;;5.60;99.90;;;;;;5114670;28;20044;-67
2022/02/02 00:44:29;;;;;;;13.07;6.35;;;5.60;99.90;;;;;;5115857;28;20148;-67
2022/02/02 00:46:56;;;;;;;12.55;6.38;;;5.60;99.90;;;;;;5116348;28;20380;-66
2022/02/02 00:49:22;;;;;;;16.92;6.75;;;5.60;99.90;;;;;;5114255;28;20445;-67
2022/02/02 00:51:50;;;;;;;12.38;7.53;;;5.60;99.90;;;;;;5115525;28;20034;-67
2022/02/02 00:54:22;;;;;;;11.18;6.88;;;5.70;99.90;;;;;;5115536;28;20039;-66
2022/02/02 00:56:49;;;;;;;14.50;6.72;;;5.70;99.90;;;;;;5115778;27;20028;-67
2022/02/02 00:59:15;;;;;;;15.52;7.13;;;5.70;99.90;;;;;;5115752;28;20027;-67
2022/02/02 01:01:42;;;;;;;11.93;6.95;;;5.70;99.90;;;;;;5115525;28;20027;-66
2022/02/02 01:04:07;;;;;;;;;;;5.70;99.90;;;;;;5115889;28;20024;-68
2022/02/02 01:06:38;;;;;;;14.48;7.07;;;5.70;99.90;;;;;;5115324;28;19980;-67
2022/02/02 01:09:30;;;;;;;11.95;7.05;;;5.70;99.90;;;;;;5115761;28;20023;-67
2022/02/02 01:20:01;;;;;;;11.77;6.77;;;5.70;99.90;;;;;;5115998;28;20027;-67
2022/02/02 01:27:56;;;;;;;13.82;6.90;;;5.80;99.90;;;;;;5116078;28;20145;-67
2022/02/02 01:30:23;;;;;;;18.60;8.60;;;5.80;99.90;;;;;;5113831;28;20110;-67
2022/02/02 01:32:50;;;;;;;11.85;6.93;;;5.80;99.90;;;;;;5115028;28;20254;-67
2022/02/02 01:35:17;;;;;;;16.55;7.28;;;5.90;99.90;;;;;;5114911;28;20019;-67
2022/02/02 01:37:45;;;;;;;13.40;7.15;;;5.90;99.90;;;;;;5123573;28;20043;-68
2022/02/02 01:40:20;;;;;;;14.95;6.97;;;5.90;99.90;;;;;;5121621;28;20039;-67
2022/02/02 01:42:55;;;;;;;11.73;6.95;;;5.90;99.90;;;;;;5113443;28;20106;-67
2022/02/02 01:45:26;;;;;;;16.75;7.68;;;5.90;99.90;;;;;;5114702;28;20027;-67
2022/02/02 01:48:12;;;;;;;15.18;7.70;;;5.90;99.90;;;;;;5114385;28;20099;-68
2022/02/02 01:50:48;;;;;;;14.23;7.00;;;5.90;99.90;;;;;;5114371;28;20077;-67
2022/02/02 01:55:41;;;;;;;15.07;7.13;;;5.90;99.90;;;;;;5115036;28;20072;-67
2022/02/02 02:00:42;;;;;;;14.90;7.38;;;6.00;99.90;;;;;;5114656;28;19907;-67
2022/02/02 02:03:07;;;;;;;15.80;8.63;;;6.00;99.90;;;;;;5114877;28;20384;-67
2022/02/02 02:05:33;;;;;;;13.67;8.40;;;6.00;99.90;;;;;;5114433;28;20043;-67
2022/02/02 02:07:58;;;;;;;15.83;8.63;;;6.00;99.90;;;;;;5114248;28;20453;-68
2022/02/02 02:10:24;;;;;;;16.83;7.37;;;6.00;99.90;;;;;;5113925;28;20024;-67
2022/02/02 02:12:58;;;;;;;24.97;7.93;;;6.10;99.90;;;;;;5114113;28;20102;-67
2022/02/02 02:15:28;;;;;;;13.25;7.28;;;6.10;99.90;;;;;;5114349;28;20039;-67
2022/02/02 02:17:54;;;;;;;21.23;7.30;;;6.10;99.90;;;;;;5114613;28;20031;-67
2022/02/02 02:20:20;;;;;;;16.13;7.33;;;6.20;99.90;;;;;;5115465;28;20126;-67
2022/02/02 02:22:46;;;;;;;12.32;7.05;;;6.20;99.90;;;;;;5114466;28;20028;-67
2022/02/02 02:25:29;;;;;;;15.52;7.75;;;6.20;99.90;;;;;;5112519;28;20063;-66
2022/02/02 02:28:06;;;;;;;15.40;7.32;;;6.20;99.90;;;;;;5114174;28;20444;-66
2022/02/02 02:30:54;;;;;;;17.75;7.00;;;6.20;99.90;;;;;;5113701;28;20019;-67
2022/02/02 02:58:18;;;;;;;14.60;7.10;;;6.30;99.90;;;;;;5113601;28;20141;-67
2022/02/02 03:49:54;;;;;;;16.20;4.85;;;6.70;99.90;;;;;;5116761;28;20050;-66
2022/02/02 03:53:15;;;;;;;16.15;7.13;;;6.70;99.90;;;;;;5116459;28;20092;-65
2022/02/02 03:58:14;;;;;;;18.27;8.93;;;6.80;99.90;;;;;;5116960;28;20042;-67
2022/02/02 04:05:43;;;;;;;15.55;5.57;;;6.80;99.90;;;;;;5116926;28;20024;-67
2022/02/02 04:10:34;;;;;;;14.63;7.10;;;6.90;99.90;;;;;;5116834;28;20023;-66
2022/02/02 04:13:19;;;;;;;17.10;6.73;;;6.90;99.90;;;;;;5116838;28;20023;-67
2022/02/02 04:51:32;;;;;;;10.65;4.38;;;6.90;99.90;;;;;;5116156;28;20042;-66
2022/02/02 04:59:29;;;;;;;12.57;4.45;;;6.90;99.90;;;;;;5116009;28;20428;-66
2022/02/02 05:07:34;;;;;;;16.33;3.42;;;6.90;99.90;;;;;;5115282;28;20547;-67
2022/02/02 05:10:14;;;;;;;17.93;4.23;;;6.90;99.90;;;;;;5115144;28;20031;-67
2022/02/02 05:21:07;;;;;;;10.82;3.45;;;7.00;99.90;;;;;;5115785;28;20020;-67
2022/02/02 05:45:32;;;;;;;12.98;3.63;;;7.10;99.90;;;;;;5115019;28;20046;-66
2022/02/02 05:53:23;;;;;;;15.70;4.28;;;7.20;99.90;;;;;;5114531;28;20385;-69
2022/02/02 05:55:50;;;;;;;18.65;4.88;;;7.20;99.90;;;;;;5114755;28;20030;-68
2022/02/02 05:58:18;;;;;;;16.80;4.95;;;7.20;99.90;;;;;;5114434;28;20383;-69
2022/02/02 06:00:43;;;;;;;27.55;7.68;;;7.20;99.90;;;;;;5114100;28;20095;-68
2022/02/02 06:03:11;;;;;;;9.70;4.63;;;7.20;99.90;;;;;;5114499;28;20046;-67
2022/02/02 06:05:39;;;;;;;13.40;4.05;;;7.20;99.90;;;;;;5114611;28;20456;-67
2022/02/02 06:08:13;;;;;;;21.33;5.78;;;7.20;99.90;;;;;;5113749;28;20487;-68
2022/02/02 06:10:41;;;;;;;14.57;5.47;;;7.20;99.90;;;;;;5114408;28;20024;-68
2022/02/02 06:13:07;;;;;;;14.95;4.53;;;7.30;99.90;;;;;;5113937;28;20027;-66
2022/02/02 06:15:34;;;;;;;15.23;3.72;;;7.30;99.90;;;;;;5113953;28;20380;-66
2022/02/02 06:18:01;;;;;;;19.98;4.40;;;7.30;99.90;;;;;;5113845;28;20024;-67
2022/02/02 06:20:27;;;;;;;11.77;4.32;;;7.30;99.90;;;;;;5113749;28;20399;-68
2022/02/02 06:23:08;;;;;;;13.23;4.45;;;7.30;99.90;;;;;;5113724;28;20031;-69
2022/02/02 06:25:36;;;;;;;10.65;3.72;;;7.30;99.90;;;;;;5113768;28;20019;-69
2022/02/02 06:28:06;;;;;;;22.05;3.97;;;7.30;99.90;;;;;;5113133;28;20024;-67
2022/02/02 06:30:33;;;;;;;15.23;3.67;;;7.30;99.90;;;;;;5113905;27;20044;-67
2022/02/02 06:33:07;;;;;;;12.35;4.00;;;7.30;99.90;;;;;;5113663;28;20027;-70
2022/02/02 06:35:34;;;;;;;19.08;3.85;;;7.30;99.90;;;;;;5112476;28;20318;-71
2022/02/02 06:38:01;;;;;;;18.55;3.63;;;7.30;99.90;;;;;;5114286;28;20023;-71
2022/02/02 06:40:28;;;;;;;13.77;4.20;;;7.30;99.90;;;;;;5114534;28;20172;-73
2022/02/02 06:42:54;;;;;;;20.13;4.82;;;7.30;99.90;;;;;;5114584;28;20047;-69
2022/02/02 06:45:21;;;;;;;12.27;3.60;;;7.30;99.90;;;;;;5115120;28;20069;-70
2022/02/02 06:47:48;;;;;;;14.57;3.72;;;7.30;99.90;;;;;;5114139;28;20058;-69
2022/02/02 06:50:24;;;;;;;17.48;3.50;;;7.30;99.90;;;;;;5120640;28;20024;-69
2022/02/02 06:53:21;;;;;;;20.02;3.92;;;7.30;99.90;;;;;;5115515;28;20557;-69
2022/02/02 06:56:28;;;;;;;17.77;3.83;;;7.40;99.90;;;;;;5113917;28;20050;-69
2022/02/02 06:59:35;;;;;;;12.40;3.72;;;7.40;99.90;;;;;;5111475;28;20034;-71
2022/02/02 07:07:48;;;;;;;17.95;4.00;;;7.30;99.90;;;;;;5114119;28;20122;-70
2022/02/02 07:13:11;;;;;;;13.00;3.95;;;7.40;99.90;;;;;;5113640;28;20104;-69
2022/02/02 07:15:54;;;;;;;15.40;4.30;;;7.40;99.90;;;;;;5112504;28;20019;-69
2022/02/02 07:24:07;;;;;;;16.48;4.70;;;7.50;99.90;;;;;;5113896;28;20056;-69
2022/02/02 07:29:31;;;;;;;20.88;4.22;;;7.50;99.90;;;;;;5113563;28;20495;-70
2022/02/02 07:34:46;;;;;;;17.23;4.15;;;7.50;99.90;;;;;;5113562;28;20031;-70
2022/02/02 07:37:17;;;;;;;19.95;4.38;;;7.60;99.90;;;;;;5111768;28;20019;-69
2022/02/02 07:39:45;;;;;;;22.02;3.80;;;7.60;99.90;;;;;;5111836;28;20170;-70
2022/02/02 07:42:12;;;;;;;13.82;4.00;;;7.60;99.90;;;;;;5112883;28;20026;-70
2022/02/02 07:44:41;;;;;;;19.75;4.05;;;7.70;99.90;;;;;;5113530;28;20031;-69
2022/02/02 07:47:11;;;;;;;17.92;4.03;;;7.60;99.90;;;;;;5112039;28;20032;-70
2022/02/02 07:49:41;;;;;;;27.33;5.05;;;7.70;99.90;;;;;;5113613;28;20077;-70
2022/02/02 07:52:12;;;;;;;15.73;4.00;;;7.70;99.90;;;;;;5116216;28;20484;-70
2022/02/02 07:54:41;;;;;;;19.60;3.83;;;7.70;99.90;;;;;;5117363;28;20089;-71
2022/02/02 07:57:13;;;;;;;14.95;3.83;;;7.70;99.90;;;;;;5117135;28;20023;-70
2022/02/02 07:59:53;;;;;;;18.90;4.18;;;7.80;99.90;;;;;;5117048;28;20027;-70
2022/02/02 08:02:24;;;;;;;18.23;3.63;;;7.80;99.90;;;;;;5115586;28;20016;-70
2022/02/02 08:04:50;;;;;;;16.95;3.60;;;7.80;99.90;;;;;;5115611;28;20392;-70
2022/02/02 08:07:23;;;;;;;18.67;4.40;;;7.80;99.90;;;;;;5116558;28;20023;-70
2022/02/02 08:10:01;;;;;;;17.48;4.72;;;7.80;99.90;;;;;;5115761;28;20384;-70
2022/02/02 08:12:33;;;;;;;19.27;3.63;;;7.80;99.90;;;;;;5117063;28;20031;-71
2022/02/02 08:14:59;;;;;;;15.85;3.65;;;7.80;99.90;;;;;;5117162;28;20058;-70
2022/02/02 08:17:25;;;;;;;17.48;3.85;;;7.80;99.90;;;;;;5117060;28;20024;-70
2022/02/02 08:19:52;;;;;;;19.80;3.53;;;7.80;99.90;;;;;;5115615;28;20514;-70
2022/02/02 08:22:18;;;;;;;26.30;5.32;;;7.90;99.90;;;;;;5116840;28;20020;-69
2022/02/02 08:24:44;;;;;;;18.92;3.72;;;7.90;99.90;;;;;;5115112;28;20472;-70
2022/02/02 08:27:09;;;;;;;15.73;4.43;;;7.90;99.90;;;;;;5116719;28;20038;-70
2022/02/02 08:29:35;;;;;;;15.40;4.03;;;8.00;99.90;;;;;;5116458;28;20023;-70
2022/02/02 08:32:02;;;;;;;15.53;3.77;;;8.00;99.90;;;;;;5116512;28;20480;-68
2022/02/02 08:34:28;;;;;;;17.75;3.60;;;8.00;99.90;;;;;;5115192;28;20135;-69
2022/02/02 08:36:55;;;;;;;14.00;3.60;;;8.00;99.90;;;;;;5116228;28;20507;-69
2022/02/02 08:39:55;;;;;;;16.38;3.90;;;8.00;99.90;;;;;;5116110;28;20472;-69
2022/02/02 08:42:21;;;;;;;22.13;6.07;;;8.00;99.90;;;;;;5114640;28;20110;-69
2022/02/02 08:45:02;;;;;;;23.33;4.10;;;8.00;99.90;;;;;;5116236;28;20023;-69
2022/02/02 08:47:28;;;;;;;12.93;3.35;;;8.00;99.90;;;;;;5116287;28;20104;-68
2022/02/02 08:49:57;;;;;;;10.47;3.60;;;8.00;99.90;;;;;;5116244;28;20031;-68
2022/02/02 08:52:33;;;;;;;21.13;4.30;;;8.00;99.90;;;;;;5115748;28;20296;-70
2022/02/02 08:55:04;;;;;;;14.15;3.53;;;8.10;99.90;;;;;;5115872;28;20504;-68
2022/02/02 09:00:05;;;;;;;20.13;3.77;;;8.20;99.90;;;;;;5115833;28;20016;-70
2022/02/02 09:02:33;;;;;;;9.23;3.17;;;8.20;99.90;;;;;;5114783;28;21631;-69
2022/02/02 09:07:43;;;;;;;11.90;4.35;;;8.30;99.90;;;;;;5115618;28;20396;-69
2022/02/02 09:10:13;;;;;;;18.70;4.40;;;8.30;99.90;;;;;;5114583;28;20027;-69
2022/02/02 09:23:34;;;;;;;19.40;5.43;;;8.30;99.90;;;;;;5114800;28;20476;-69
2022/02/02 09:31:54;;;;;;;18.13;4.57;;;8.60;99.90;;;;;;5080543;28;20430;-69
2022/02/02 09:34:21;;;;;;;19.48;5.15;;;8.70;99.90;;;;;;5113340;28;20392;-69
2022/02/02 09:36:47;;;;;;;17.90;3.88;;;8.80;99.90;;;;;;5114475;28;20016;-69
2022/02/02 09:39:20;;;;;;;20.23;4.00;;;8.90;99.90;;;;;;5114891;28;20022;-69
2022/02/02 09:42:02;;;;;;;16.40;3.45;;;9.10;99.90;;;;;;5112945;28;20019;-69
2022/02/02 09:44:34;;;;;;;10.63;3.60;;;9.20;99.90;;;;;;5114333;28;20415;-69
2022/02/02 09:49:59;;;;;;;14.48;3.40;;;9.30;99.90;;;;;;5114481;28;20044;-70
2022/02/02 09:52:32;;;;;;;18.77;4.53;;;9.30;99.90;;;;;;5114058;28;20484;-69
2022/02/02 09:55:11;;;;;;;13.50;4.30;;;9.30;99.90;;;;;;5114391;28;20383;-69
2022/02/02 10:03:08;;;;;;;16.60;3.45;;;9.40;99.90;;;;;;5115227;28;20034;-69
2022/02/02 10:05:55;;;;;;;25.30;4.90;;;9.50;99.90;;;;;;5115212;28;20487;-68
2022/02/02 10:11:03;;;;;;;11.02;3.72;;;9.70;99.90;;;;;;5114828;28;20027;-67
2022/02/02 10:16:20;;;;;;;20.73;4.63;;;9.70;99.90;;;;;;5115981;28;20491;-67
2022/02/02 10:18:46;;;;;;;;;;;9.70;99.90;;;;;;5116626;28;20472;-67
2022/02/02 10:21:13;;;;;;;15.13;3.55;;;9.90;99.90;;;;;;5114901;28;19915;-68
2022/02/02 10:23:40;;;;;;;18.20;3.10;;;9.90;99.90;;;;;;5113448;28;20472;-67
2022/02/02 10:26:19;;;;;;;20.58;4.05;;;9.90;99.90;;;;;;5113872;28;20476;-67
2022/02/02 10:28:46;;;;;;;17.65;4.05;;;9.90;99.90;;;;;;5113739;28;20483;-67
2022/02/02 10:31:12;;;;;;;17.38;3.70;;;9.90;99.90;;;;;;5113877;28;20394;-67
2022/02/02 10:33:39;;;;;;;17.38;3.53;;;9.80;99.90;;;;;;5113699;28;20368;-67
2022/02/02 10:36:20;;;;;;;15.52;3.22;;;9.80;99.90;;;;;;5113865;28;20100;-67
2022/02/02 10:39:09;;;;;;;19.05;3.72;;;9.70;99.90;;;;;;5113750;28;20383;-67
2022/02/02 10:41:52;;;;;;;18.02;3.95;;;9.70;99.90;;;;;;5114001;28;20015;-67
2022/02/02 10:44:27;;;;;;;22.65;3.75;;;9.60;99.90;;;;;;5114073;28;20380;-67
2022/02/02 10:47:13;;;;;;;19.60;4.35;;;9.60;99.90;;;;;;5114054;28;20032;-67
2022/02/02 10:49:51;;;;;;;13.45;3.05;;;9.60;99.90;;;;;;5113884;28;20172;-67
2022/02/02 10:58:23;;;;;;;16.60;2.95;;;9.90;99.90;;;;;;5112890;28;20020;-67
2022/02/02 11:08:52;;;;;;;23.98;4.13;;;10.40;99.90;;;;;;5113724;28;20109;-67
2022/02/02 11:11:21;;;;;;;14.57;3.08;;;10.60;99.90;;;;;;5113508;28;20027;-67
2022/02/02 11:13:52;;;;;;;15.75;4.13;;;10.80;99.90;;;;;;5113788;28;20043;-67
2022/02/02 11:16:24;;;;;;;13.95;3.80;;;11.00;99.90;;;;;;5113754;28;20023;-67
2022/02/02 11:18:52;;;;;;;13.25;3.30;;;11.00;99.90;;;;;;5113439;28;20019;-67
2022/02/02 11:21:21;;;;;;;16.30;3.25;;;11.00;99.90;;;;;;5115131;28;20020;-68
2022/02/02 11:23:49;;;;;;;14.40;3.28;;;10.90;99.90;;;;;;5119074;28;20068;-67
2022/02/02 11:26:45;;;;;;;16.08;3.40;;;11.00;99.90;;;;;;5114031;28;20027;-67
2022/02/02 11:29:38;;;;;;;14.45;3.25;;;11.00;99.90;;;;;;5117267;28;20062;-67
2022/02/02 11:32:09;;;;;;;10.68;2.70;;;11.00;99.90;;;;;;5117140;28;20022;-67
2022/02/02 11:34:35;;;;;;;18.75;3.92;;;11.10;99.90;;;;;;5115726;28;20114;-67
2022/02/02 11:37:03;;;;;;;15.07;3.75;;;11.20;99.90;;;;;;5115808;28;20058;-67
2022/02/02 11:39:42;;;;;;;18.00;3.85;;;11.10;99.90;;;;;;5117187;28;20027;-66
2022/02/02 11:42:18;;;;;;;16.52;3.80;;;11.10;99.90;;;;;;5117092;28;20024;-66
2022/02/02 11:45:02;;;;;;;16.30;3.50;;;11.10;99.90;;;;;;5117484;28;20068;-69
2022/02/02 11:47:40;;;;;;;13.77;3.42;;;11.30;99.90;;;;;;5115482;28;20030;-69
2022/02/02 11:50:07;;;;;;;13.80;3.33;;;11.30;99.90;;;;;;5117387;28;20024;-70
2022/02/02 11:52:49;;;;;;;16.23;3.20;;;11.30;99.90;;;;;;5116777;28;20081;-68
2022/02/02 11:55:42;;;;;;;14.88;3.33;;;11.30;99.90;;;;;;5117165;28;20023;-68
2022/02/02 11:58:15;;;;;;;17.13;3.55;;;11.20;99.90;;;;;;5116687;28;20539;-68
2022/02/02 12:00:54;;;;;;;14.07;3.13;;;11.10;99.90;;;;;;5116376;28;20022;-69
2022/02/02 12:09:07;;;;;;;16.45;3.75;;;11.20;99.90;;;;;;5116546;27;20510;-68
2022/02/02 12:47:49;;;;;;;17.48;2.78;;;10.90;99.90;;;;;;5116719;28;20035;-68
2022/02/02 12:53:33;;;;;;;19.10;3.08;;;10.80;99.90;;;;;;5117414;28;20080;-68
2022/02/02 12:58:50;;;;;;;9.13;2.60;;;10.50;99.90;;;;;;5116276;28;20103;-68
2022/02/02 13:01:19;;;;;;;17.38;4.03;;;10.40;99.90;;;;;;5116021;28;20022;-68
2022/02/02 13:03:46;;;;;;;12.55;2.65;;;10.40;99.90;;;;;;5115399;28;20028;-68
2022/02/02 13:06:18;;;;;;;11.63;3.10;;;10.30;99.90;;;;;;5114177;28;20027;-68
2022/02/02 13:08:47;;;;;;;12.05;3.40;;;10.30;99.90;;;;;;5115415;28;20027;-69
2022/02/02 13:11:12;;;;;;;16.27;4.30;;;10.20;99.90;;;;;;5115437;28;20452;-68
2022/02/02 13:13:44;;;;;;;12.30;3.17;;;10.20;99.90;;;;;;5115490;28;20030;-69
2022/02/02 13:16:15;;;;;;;10.52;2.95;;;10.10;99.90;;;;;;5115467;28;20030;-68
2022/02/02 13:18:45;;;;;;;14.38;3.38;;;10.10;99.90;;;;;;5114296;28;20054;-72
2022/02/02 13:23:59;;;;;;;14.77;3.10;;;10.10;99.90;;;;;;5115331;28;20491;-73
2022/02/02 13:26:55;;;;;;;11.65;3.00;;;10.00;99.90;;;;;;5115492;28;20026;-68
2022/02/02 13:38:16;;;;;;;9.27;2.50;;;10.10;99.90;;;;;;5116519;28;20028;-67
2022/02/02 13:54:37;;;;;;;11.98;2.35;;;10.20;99.90;;;;;;5114620;28;20160;-66
2022/02/02 13:57:30;;;;;;;12.18;2.20;;;10.20;99.90;;;;;;5113267;28;20074;-71
2022/02/02 14:00:53;;;;;;;6.93;1.45;;;10.20;99.90;;;;;;5120978;28;20020;-71
2022/02/02 14:05:54;;;;;;;2.53;1.10;;;10.20;99.90;;;;;;5115303;28;20102;-69
2022/02/02 14:32:54;;;;;;;6.82;2.33;;;9.80;99.90;;;;;;5114286;28;20035;-65
2022/02/02 14:35:20;;;;;;;7.43;3.07;;;9.70;99.90;;;;;;5113436;28;20019;-66
2022/02/02 14:37:49;;;;;;;6.25;2.90;;;9.60;99.90;;;;;;5114355;28;20031;-69
2022/02/02 14:40:25;;;;;;;11.60;3.13;;;9.60;99.90;;;;;;5112700;28;20024;-68
2022/02/02 14:42:54;;;;;;;9.07;3.58;;;9.60;99.90;;;;;;5113833;28;20011;-64
2022/02/02 14:45:24;;;;;;;10.98;3.88;;;9.60;99.90;;;;;;5112613;28;20046;-70
2022/02/02 14:47:55;;;;;;;12.75;3.10;;;9.60;99.90;;;;;;5113678;28;20081;-70
2022/02/02 14:50:37;;;;;;;10.55;3.50;;;9.60;99.90;;;;;;5114093;28;20027;-72
2022/02/02 15:32:54;;;;;;;8.02;2.15;;;9.60;99.90;;;;;;5117938;28;20027;-70
2022/02/02 15:35:21;;;;;;;13.20;2.53;;;9.60;99.90;;;;;;5117302;28;20020;-70
2022/02/02 15:40:17;;;;;;;5.40;1.80;;;9.60;99.90;;;;;;5117410;28;20472;-69
2022/02/02 15:42:56;;;;;;;7.70;2.72;;;9.60;99.90;;;;;;5114728;28;20034;-70
2022/02/02 15:58:46;;;;;;;3.42;2.15;;;9.50;99.90;;;;;;5116944;27;20035;-71
2022/02/02 16:03:58;;;;;;;5.82;2.17;;;9.40;99.90;;;;;;5116688;28;20076;-71
2022/02/02 16:06:25;;;;;;;7.30;2.60;;;9.50;99.90;;;;;;5116948;28;20509;-71
2022/02/02 16:09:17;;;;;;;4.45;2.45;;;9.40;99.90;;;;;;5116817;28;20064;-71
2022/02/02 16:11:45;;;;;;;7.05;3.15;;;9.40;99.90;;;;;;5115201;28;20031;-71
2022/02/02 16:14:21;;;;;;;6.10;3.05;;;9.30;99.90;;;;;;5115840;28;20512;-72
2022/02/02 16:17:09;;;;;;;12.70;5.00;;;9.30;99.90;;;;;;5116857;28;20091;-71
2022/02/02 16:24:39;;;;;;;10.18;4.03;;;9.30;99.90;;;;;;5115655;28;20023;-71
2022/02/02 16:25:26;;;;;;;8.32;3.40;;;9.20;99.90;;;;;;5116718;28;20022;-68
2022/02/02 16:34:11;;;;;;;5.73;3.30;;;9.20;99.90;;;;;;5117133;28;20079;-72
2022/02/02 16:38:34;;;;;;;3.27;2.40;;;9.10;99.90;;;;;;5123827;28;20483;-74
2022/02/02 16:41:03;;;;;;;7.03;2.83;;;9.10;99.90;;;;;;5115993;28;20758;-73
2022/02/02 16:43:29;;;;;;;7.40;3.42;;;9.10;99.90;;;;;;5115400;28;20024;-71
2022/02/02 16:45:55;;;;;;;7.20;3.30;;;9.00;99.90;;;;;;5115589;28;20383;-71
2022/02/02 16:48:22;;;;;;;6.95;3.17;;;9.00;99.90;;;;;;5116616;28;20034;-71
2022/02/02 16:50:52;;;;;;;8.13;3.60;;;9.00;99.90;;;;;;5116235;28;20110;-69
2022/02/02 17:30:43;;;;;;;6.72;3.88;;;8.70;99.90;;;;;;5115602;28;20180;-69
2022/02/02 17:38:37;;;;;;;9.90;3.95;;;8.90;99.90;;;;;;5114904;28;20111;-69
2022/02/02 18:19:04;;;;;;;11.88;6.47;;;8.60;99.90;;;;;;5115182;28;20503;-73
2022/02/02 18:21:31;;;;;;;10.07;5.18;;;8.60;99.90;;;;;;5115854;28;20026;-75
2022/02/02 18:26:32;;;;;;;13.40;6.13;;;8.50;99.90;;;;;;5114990;28;20027;-76
2022/02/02 18:29:05;;;;;;;12.38;5.78;;;8.50;99.90;;;;;;5116716;28;20111;-75
2022/02/02 18:47:33;;;;;;;11.73;6.45;;;8.60;99.90;;;;;;5114081;28;20087;-69
2022/02/02 18:52:50;;;;;;;9.65;5.47;;;8.60;99.90;;;;;;5114569;28;20135;-69
2022/02/02 18:58:03;;;;;;;23.88;10.60;;;8.70;99.90;;;;;;5114856;28;20047;-69
2022/02/02 19:00:45;;;;;;;10.20;5.95;;;8.60;99.90;;;;;;5113446;28;20027;-70
2022/02/02 19:03:38;;;;;;;11.45;5.65;;;8.70;99.90;;;;;;5115624;28;20094;-71
2022/02/02 19:06:35;;;;;;;11.07;6.43;;;8.70;99.90;;;;;;5114097;28;20511;-70
2022/02/02 19:56:13;;;;;;;14.25;8.65;;;8.60;99.90;;;;;;5093385;28;20534;-70
2022/02/02 20:11:41;;;;;;;16.58;9.52;;;8.50;99.90;;;;;;5117433;28;20472;-69
2022/02/02 20:14:08;;;;;;;12.02;8.30;;;8.60;99.90;;;;;;5116962;28;20024;-69
2022/02/02 20:16:34;;;;;;;18.60;10.35;;;8.60;99.90;;;;;;5115474;28;20031;-70
2022/02/02 20:19:04;;;;;;;17.23;10.05;;;8.60;99.90;;;;;;5116734;28;20019;-70
2022/02/02 20:21:34;;;;;;;16.67;10.60;;;8.60;99.90;;;;;;5116691;28;20019;-71
2022/02/02 20:24:02;;;;;;;18.85;12.93;;;8.60;99.90;;;;;;5116385;28;20016;-70
2022/02/02 20:26:29;;;;;;;17.42;10.43;;;8.60;99.90;;;;;;5116396;28;20076;-70
2022/02/02 20:28:55;;;;;;;16.15;10.85;;;8.60;99.90;;;;;;5116570;28;20023;-70
2022/02/02 20:31:21;;;;;;;16.92;10.65;;;8.60;99.90;;;;;;5116265;28;20047;-70
2022/02/02 20:33:47;;;;;;;18.27;11.93;;;8.60;99.90;;;;;;5114785;28;20480;-70
2022/02/02 20:36:13;;;;;;;18.58;11.60;;;8.60;99.90;;;;;;5116449;28;20459;-71
2022/02/02 20:38:40;;;;;;;16.33;11.05;;;8.70;99.90;;;;;;5116666;28;20019;-70
2022/02/02 20:41:06;;;;;;;25.58;15.40;;;8.60;99.90;;;;;;5116078;28;20384;-70
2022/02/02 20:43:38;;;;;;;20.63;12.77;;;8.60;99.90;;;;;;5116158;28;20024;-69
2022/02/02 20:46:26;;;;;;;17.88;11.63;;;8.60;99.90;;;;;;5116057;27;20464;-71
2022/02/02 21:10:45;;;;;;;18.83;10.32;;;8.70;99.90;;;;;;5115794;28;20039;-69
2022/02/02 21:15:55;;;;;;;17.45;10.15;;;8.80;99.90;;;;;;5116046;28;20498;-70
2022/02/02 21:18:29;;;;;;;19.65;13.68;;;8.80;99.90;;;;;;5115390;28;20028;-70
2022/02/02 21:21:15;;;;;;;18.00;10.82;;;8.80;99.90;;;;;;5116062;27;20079;-70
2022/02/02 21:29:00;;;;;;;14.82;9.73;;;8.80;99.90;;;;;;5115395;28;20019;-70
2022/02/02 21:31:26;;;;;;;18.30;9.25;;;8.70;99.90;;;;;;5114999;28;20020;-69
2022/02/02 21:33:51;;;;;;;14.98;9.10;;;8.70;99.90;;;;;;5115019;28;20038;-69
2022/02/02 21:36:18;;;;;;;17.30;9.33;;;8.80;99.90;;;;;;5115050;28;20027;-68
2022/02/02 21:41:33;;;;;;;15.80;9.68;;;8.70;99.90;;;;;;5115390;28;20062;-71
2022/02/02 21:43:59;;;;;;;15.75;9.38;;;8.70;99.90;;;;;;5115056;28;20015;-70
2022/02/02 21:46:25;;;;;;;13.63;9.17;;;8.70;99.90;;;;;;5114578;28;20026;-70
2022/02/02 21:48:52;;;;;;;;;;;8.70;99.90;;;;;;5115336;28;20035;-70
2022/02/02 21:51:26;;;;;;;13.35;8.93;;;8.80;99.90;;;;;;5115324;28;20360;-69
2022/02/02 21:53:52;;;;;;;15.30;9.60;;;8.80;99.90;;;;;;5115112;28;20031;-69
2022/02/02 21:56:19;;;;;;;18.10;9.93;;;8.70;99.90;;;;;;5113091;28;20042;-69
2022/02/02 21:58:44;;;;;;;16.30;9.38;;;8.70;99.90;;;;;;5114656;28;20258;-69
2022/02/02 22:01:10;;;;;;;14.70;9.50;;;8.60;99.90;;;;;;5113132;28;20015;-69
2022/02/02 22:03:35;;;;;;;16.03;10.57;;;8.60;99.90;;;;;;5114301;28;20024;-69
2022/02/02 22:06:01;;;;;;;18.23;11.07;;;8.60;99.90;;;;;;5114581;28;20103;-69
2022/02/02 22:08:27;;;;;;;16.00;10.43;;;8.60;99.90;;;;;;5114330;28;20034;-69
2022/02/02 22:10:52;;;;;;;21.23;11.53;;;8.50;99.90;;;;;;5114397;28;20030;-70
2022/02/02 22:13:19;;;;;;;16.97;11.63;;;8.50;99.90;;;;;;5114264;28;20015;-70
2022/02/02 22:15:52;;;;;;;20.63;12.35;;;8.50;99.90;;;;;;5114108;28;20111;-70
2022/02/02 22:18:19;;;;;;;19.38;11.65;;;8.50;99.90;;;;;;5112765;28;20019;-70
2022/02/02 22:20:45;;;;;;;17.55;11.55;;;8.40;99.90;;;;;;5112756;28;20384;-70
2022/02/02 22:23:11;;;;;;;17.33;11.52;;;8.40;99.90;;;;;;5112770;28;20015;-70
2022/02/02 22:25:37;;;;;;;18.93;11.57;;;8.40;99.90;;;;;;5114149;28;20024;-70
2022/02/02 22:28:03;;;;;;;21.30;11.90;;;8.40;99.90;;;;;;5114335;28;20573;-70
2022/02/02 22:30:29;;;;;;;16.08;11.00;;;8.40;99.90;;;;;;5112790;28;20258;-69
2022/02/02 22:32:55;;;;;;;18.13;11.60;;;8.40;99.90;;;;;;5114286;28;20038;-69
2022/02/02 22:35:21;;;;;;;21.80;12.82;;;8.30;99.90;;;;;;5112713;28;20076;-69
2022/02/02 22:37:46;;;;;;;18.52;11.88;;;8.30;99.90;;;;;;5114099;28;20028;-69
2022/02/02 22:40:20;;;;;;;22.67;12.48;;;8.30;99.90;;;;;;5114227;28;20016;-69
2022/02/02 22:42:45;;;;;;;18.70;11.85;;;8.30;99.90;;;;;;5114335;28;20062;-70
2022/02/02 22:45:13;;;;;;;19.67;11.97;;;8.30;99.90;;;;;;5114354;28;20413;-70
2022/02/02 22:47:42;;;;;;;19.30;12.00;;;8.30;99.90;;;;;;5114097;28;20019;-70
2022/02/02 22:50:09;;;;;;;19.23;11.40;;;8.30;99.90;;;;;;5113666;28;20019;-70
2022/02/02 22:52:35;;;;;;;19.13;10.70;;;8.30;99.90;;;;;;5113560;28;20032;-70
2022/02/02 22:55:01;;;;;;;15.60;11.13;;;8.40;99.90;;;;;;5112382;28;20032;-70
2022/02/02 22:57:26;;;;;;;13.07;9.07;;;8.30;99.90;;;;;;5113971;28;20107;-70
2022/02/02 22:59:53;;;;;;;20.23;9.70;;;8.30;99.90;;;;;;5112444;28;20514;-70
2022/02/02 23:02:41;;;;;;;15.90;10.27;;;8.20;99.90;;;;;;5114125;28;20499;-70
2022/02/02 23:05:07;;;;;;;14.77;9.02;;;8.20;99.90;;;;;;5112900;28;20357;-70
2022/02/02 23:07:33;;;;;;;14.60;9.73;;;8.30;99.90;;;;;;5112229;28;20176;-70
2022/02/02 23:09:59;;;;;;;15.20;9.30;;;8.30;99.90;;;;;;5113387;28;20020;-69
2022/02/02 23:12:26;;;;;;;15.27;9.95;;;8.30;99.90;;;;;;5114196;28;20042;-69
2022/02/02 23:14:53;;;;;;;13.52;9.15;;;8.30;99.90;;;;;;5114268;28;20480;-69
2022/02/02 23:17:20;;;;;;;14.90;8.65;;;8.20;99.90;;;;;;5112224;28;20080;-68
2022/02/02 23:19:49;;;;;;;13.80;9.10;;;8.20;99.90;;;;;;5113462;28;20027;-70
2022/02/02 23:22:17;;;;;;;13.88;8.70;;;8.20;99.90;;;;;;5113806;28;20023;-69
2022/02/02 23:24:45;;;;;;;14.05;8.70;;;8.20;99.90;;;;;;5117566;28;20165;-69
2022/02/02 23:27:13;;;;;;;11.50;7.97;;;8.20;99.90;;;;;;5117561;27;20016;-69
2022/02/02 23:29:43;;;;;;;11.73;7.95;;;8.30;99.90;;;;;;5119673;28;20034;-70
2022/02/02 23:32:10;;;;;;;13.30;8.23;;;8.20;99.90;;;;;;5126510;28;20047;-70
2022/02/02 23:34:36;;;;;;;13.07;8.55;;;8.20;99.90;;;;;;5127522;28;20024;-70
2022/02/02 23:37:02;;;;;;;11.90;7.97;;;8.30;99.90;;;;;;5124702;28;20019;-69